BVN7280 KAUS-KAFW
Flight info
| Callsign | BVN7280 |
|---|---|
| Flight time | 1h 2m |
| Altitude | 7000 |
| Route | TPL/N0178F060 |
| Aircraft | C208/L-SDFGR/C |
Departure
| Time | 2026-04-21 06:51 |
|---|---|
| Airport | Austin Bergstrom International Airport (KAUS) |
Arrival
| Time | 2026-04-21 07:53 |
|---|---|
| Airport | Perot Field/Fort Worth Alliance Airport (KAFW) |
| Time | Latitude | Longitude | Altitude | Speed | Heading |
|---|---|---|---|---|---|
| 2026-04-21 06:42 | 30.21715 | -97.67366 | 526 ft | 0 kts | 188° |
| 2026-04-21 06:48 | 30.21710 | -97.67367 | 526 ft | 8 kts | 188° |
| 2026-04-21 06:48 | 30.21668 | -97.67438 | 526 ft | 9 kts | 256° |
| 2026-04-21 06:49 | 30.21647 | -97.67515 | 526 ft | 14 kts | 250° |
| 2026-04-21 06:49 | 30.21565 | -97.67633 | 526 ft | 25 kts | 218° |
| 2026-04-21 06:49 | 30.21416 | -97.67786 | 525 ft | 30 kts | 221° |
| 2026-04-21 06:49 | 30.21297 | -97.67937 | 524 ft | 19 kts | 184° |
| 2026-04-21 06:50 | 30.21143 | -97.67932 | 526 ft | 40 kts | 179° |
| 2026-04-21 06:50 | 30.20735 | -97.67928 | 564 ft | 68 kts | 182° |
| 2026-04-21 06:50 | 30.20259 | -97.67935 | 694 ft | 70 kts | 184° |
| 2026-04-21 06:50 | 30.19757 | -97.67934 | 802 ft | 74 kts | 180° |
| 2026-04-21 06:51 | 30.19233 | -97.67933 | 917 ft | 77 kts | 181° |
| 2026-04-21 06:51 | 30.18692 | -97.67973 | 1027 ft | 77 kts | 193° |
| 2026-04-21 06:51 | 30.18342 | -97.68424 | 1091 ft | 96 kts | 256° |
| 2026-04-21 06:51 | 30.18509 | -97.69267 | 1160 ft | 123 kts | 304° |
| 2026-04-21 06:52 | 30.19154 | -97.70025 | 1286 ft | 138 kts | 322° |
| 2026-04-21 06:52 | 30.19955 | -97.70663 | 1472 ft | 142 kts | 332° |
| 2026-04-21 06:52 | 30.20835 | -97.71219 | 1727 ft | 145 kts | 333° |
| 2026-04-21 06:52 | 30.21747 | -97.71754 | 1930 ft | 150 kts | 345° |
| 2026-04-21 06:53 | 30.22771 | -97.71957 | 2160 ft | 147 kts | 5° |
| 2026-04-21 06:53 | 30.23765 | -97.71773 | 2334 ft | 149 kts | 30° |
| 2026-04-21 06:53 | 30.24731 | -97.71247 | 2390 ft | 157 kts | 38° |
| 2026-04-21 06:53 | 30.25733 | -97.70825 | 2791 ft | 148 kts | 22° |
| 2026-04-21 06:54 | 30.26725 | -97.70503 | 3008 ft | 153 kts | 27° |
| 2026-04-21 06:54 | 30.27774 | -97.70043 | 3134 ft | 161 kts | 32° |
| 2026-04-21 06:54 | 30.28751 | -97.69552 | 3582 ft | 147 kts | 35° |
| 2026-04-21 06:54 | 30.29662 | -97.69064 | 3884 ft | 146 kts | 34° |
| 2026-04-21 06:55 | 30.30631 | -97.68615 | 4089 ft | 152 kts | 25° |
| 2026-04-21 06:55 | 30.31632 | -97.68222 | 4345 ft | 153 kts | 24° |
| 2026-04-21 06:55 | 30.32636 | -97.67860 | 4632 ft | 150 kts | 24° |
| 2026-04-21 06:55 | 30.33657 | -97.67499 | 4822 ft | 155 kts | 22° |
| 2026-04-21 06:56 | 30.34685 | -97.67144 | 5090 ft | 154 kts | 19° |
| 2026-04-21 06:56 | 30.35723 | -97.66846 | 5342 ft | 154 kts | 15° |
| 2026-04-21 06:56 | 30.36774 | -97.66560 | 5566 ft | 155 kts | 18° |
| 2026-04-21 06:56 | 30.37840 | -97.66280 | 5745 ft | 160 kts | 15° |
| 2026-04-21 06:57 | 30.38944 | -97.65964 | 5864 ft | 167 kts | 18° |
| 2026-04-21 06:57 | 30.40078 | -97.65601 | 5996 ft | 170 kts | 18° |
| 2026-04-21 06:57 | 30.41228 | -97.65228 | 6128 ft | 173 kts | 18° |
| 2026-04-21 06:57 | 30.42388 | -97.64848 | 6257 ft | 174 kts | 18° |
| 2026-04-21 06:58 | 30.43566 | -97.64501 | 6385 ft | 175 kts | 15° |
| 2026-04-21 06:58 | 30.44751 | -97.64170 | 6512 ft | 175 kts | 15° |
| 2026-04-21 06:58 | 30.45936 | -97.63838 | 6639 ft | 175 kts | 15° |
| 2026-04-21 06:58 | 30.47122 | -97.63503 | 6758 ft | 176 kts | 15° |
| 2026-04-21 06:59 | 30.48308 | -97.63168 | 6875 ft | 175 kts | 15° |
| 2026-04-21 06:59 | 30.49492 | -97.62833 | 6991 ft | 175 kts | 15° |
| 2026-04-21 06:59 | 30.50676 | -97.62498 | 7109 ft | 175 kts | 14° |
| 2026-04-21 06:59 | 30.51859 | -97.62163 | 7226 ft | 175 kts | 14° |
| 2026-04-21 07:00 | 30.53040 | -97.61828 | 7343 ft | 175 kts | 14° |
| 2026-04-21 07:00 | 30.54238 | -97.61489 | 7492 ft | 175 kts | 14° |
| 2026-04-21 07:00 | 30.55421 | -97.61154 | 7612 ft | 175 kts | 14° |
| 2026-04-21 07:00 | 30.56605 | -97.60819 | 7722 ft | 175 kts | 14° |
| 2026-04-21 07:01 | 30.57789 | -97.60484 | 7850 ft | 175 kts | 14° |
| 2026-04-21 07:01 | 30.58971 | -97.60148 | 7971 ft | 175 kts | 13° |
| 2026-04-21 07:01 | 30.61387 | -97.59461 | 8034 ft | 183 kts | 13° |
| 2026-04-21 07:02 | 30.62635 | -97.59106 | 8040 ft | 186 kts | 14° |
| 2026-04-21 07:02 | 30.63895 | -97.58748 | 8043 ft | 187 kts | 13° |
| 2026-04-21 07:02 | 30.65163 | -97.58388 | 8040 ft | 188 kts | 13° |
| 2026-04-21 07:02 | 30.66431 | -97.58028 | 8036 ft | 188 kts | 13° |
| 2026-04-21 07:03 | 30.67702 | -97.57668 | 8038 ft | 188 kts | 13° |
| 2026-04-21 07:03 | 30.68969 | -97.57308 | 8038 ft | 188 kts | 13° |
| 2026-04-21 07:03 | 30.70238 | -97.56947 | 8038 ft | 188 kts | 14° |
| 2026-04-21 07:03 | 30.71510 | -97.56585 | 8036 ft | 188 kts | 13° |
| 2026-04-21 07:04 | 30.72780 | -97.56225 | 8033 ft | 188 kts | 14° |
| 2026-04-21 07:04 | 30.74049 | -97.55863 | 8039 ft | 188 kts | 14° |
| 2026-04-21 07:04 | 30.75315 | -97.55503 | 8033 ft | 187 kts | 14° |
| 2026-04-21 07:04 | 30.76577 | -97.55144 | 8031 ft | 186 kts | 14° |
| 2026-04-21 07:05 | 30.77835 | -97.54786 | 8029 ft | 186 kts | 14° |
| 2026-04-21 07:05 | 30.79093 | -97.54428 | 8028 ft | 186 kts | 14° |
| 2026-04-21 07:05 | 30.80347 | -97.54070 | 8025 ft | 186 kts | 14° |
| 2026-04-21 07:05 | 30.81603 | -97.53713 | 8024 ft | 186 kts | 14° |
| 2026-04-21 07:06 | 30.82856 | -97.53356 | 8026 ft | 186 kts | 14° |
| 2026-04-21 07:06 | 30.84112 | -97.52998 | 8024 ft | 186 kts | 14° |
| 2026-04-21 07:06 | 30.85367 | -97.52640 | 8022 ft | 186 kts | 14° |
| 2026-04-21 07:06 | 30.86621 | -97.52282 | 8017 ft | 185 kts | 14° |
| 2026-04-21 07:07 | 30.87875 | -97.51925 | 8020 ft | 186 kts | 14° |
| 2026-04-21 07:07 | 30.89144 | -97.51563 | 8013 ft | 185 kts | 14° |
| 2026-04-21 07:07 | 30.90396 | -97.51206 | 8016 ft | 185 kts | 14° |
| 2026-04-21 07:07 | 30.91647 | -97.50849 | 8011 ft | 185 kts | 14° |
| 2026-04-21 07:08 | 30.92892 | -97.50494 | 8072 ft | 182 kts | 14° |
| 2026-04-21 07:08 | 30.94107 | -97.50149 | 8168 ft | 178 kts | 14° |
| 2026-04-21 07:08 | 30.95304 | -97.49807 | 8261 ft | 176 kts | 14° |
| 2026-04-21 07:08 | 30.96492 | -97.49468 | 8358 ft | 175 kts | 13° |
| 2026-04-21 07:09 | 30.97675 | -97.49130 | 8458 ft | 174 kts | 13° |
| 2026-04-21 07:09 | 30.98851 | -97.48794 | 8554 ft | 174 kts | 13° |
| 2026-04-21 07:09 | 31.00026 | -97.48458 | 8653 ft | 173 kts | 13° |
| 2026-04-21 07:09 | 31.01195 | -97.48123 | 8751 ft | 173 kts | 13° |
| 2026-04-21 07:10 | 31.02366 | -97.47788 | 8851 ft | 173 kts | 13° |
| 2026-04-21 07:10 | 31.03536 | -97.47453 | 8954 ft | 173 kts | 13° |
| 2026-04-21 07:10 | 31.04705 | -97.47118 | 9017 ft | 175 kts | 13° |
| 2026-04-21 07:10 | 31.05902 | -97.46774 | 9021 ft | 179 kts | 13° |
| 2026-04-21 07:11 | 31.07118 | -97.46424 | 9025 ft | 181 kts | 13° |
| 2026-04-21 07:11 | 31.08347 | -97.46071 | 9029 ft | 182 kts | 13° |
| 2026-04-21 07:11 | 31.09583 | -97.45717 | 9032 ft | 183 kts | 13° |
| 2026-04-21 07:11 | 31.10822 | -97.45362 | 9033 ft | 184 kts | 13° |
| 2026-04-21 07:12 | 31.12064 | -97.45006 | 9033 ft | 184 kts | 13° |
| 2026-04-21 07:12 | 31.13311 | -97.44648 | 9032 ft | 184 kts | 13° |
| 2026-04-21 07:12 | 31.14557 | -97.44291 | 9031 ft | 185 kts | 13° |
| 2026-04-21 07:12 | 31.15804 | -97.43933 | 9031 ft | 185 kts | 13° |
| 2026-04-21 07:13 | 31.17052 | -97.43576 | 9030 ft | 185 kts | 13° |
| 2026-04-21 07:13 | 31.18298 | -97.43218 | 9030 ft | 184 kts | 13° |
| 2026-04-21 07:13 | 31.19545 | -97.42859 | 9029 ft | 184 kts | 13° |
| 2026-04-21 07:13 | 31.20791 | -97.42504 | 9028 ft | 184 kts | 12° |
| 2026-04-21 07:14 | 31.22062 | -97.42378 | 9026 ft | 183 kts | 0° |
| 2026-04-21 07:14 | 31.23339 | -97.42324 | 9026 ft | 183 kts | 1° |
| 2026-04-21 07:14 | 31.24201 | -97.42275 | 9026 ft | 184 kts | 1° |
| 2026-04-21 07:14 | 31.25474 | -97.42198 | 9025 ft | 183 kts | 1° |
| 2026-04-21 07:15 | 31.26752 | -97.42120 | 9022 ft | 184 kts | 1° |
| 2026-04-21 07:15 | 31.28026 | -97.42047 | 9021 ft | 184 kts | 1° |
| 2026-04-21 07:15 | 31.29303 | -97.41972 | 9021 ft | 184 kts | 1° |
| 2026-04-21 07:15 | 31.30581 | -97.41898 | 9020 ft | 184 kts | 1° |
| 2026-04-21 07:16 | 31.31861 | -97.41825 | 9024 ft | 184 kts | 1° |
| 2026-04-21 07:16 | 31.33142 | -97.41750 | 9018 ft | 184 kts | 1° |
| 2026-04-21 07:16 | 31.34422 | -97.41675 | 9016 ft | 184 kts | 1° |
| 2026-04-21 07:16 | 31.35705 | -97.41601 | 9015 ft | 184 kts | 1° |
| 2026-04-21 07:17 | 31.36986 | -97.41526 | 9012 ft | 184 kts | 2° |
| 2026-04-21 07:17 | 31.38268 | -97.41451 | 9012 ft | 185 kts | 2° |
| 2026-04-21 07:17 | 31.39550 | -97.41377 | 9010 ft | 184 kts | 1° |
| 2026-04-21 07:17 | 31.40832 | -97.41303 | 9009 ft | 184 kts | 1° |
| 2026-04-21 07:18 | 31.42112 | -97.41228 | 9008 ft | 184 kts | 1° |
| 2026-04-21 07:18 | 31.43390 | -97.41152 | 9010 ft | 184 kts | 2° |
| 2026-04-21 07:18 | 31.44670 | -97.41077 | 9009 ft | 184 kts | 1° |
| 2026-04-21 07:18 | 31.45951 | -97.41003 | 9009 ft | 185 kts | 1° |
| 2026-04-21 07:19 | 31.47234 | -97.40924 | 9010 ft | 185 kts | 2° |
| 2026-04-21 07:19 | 31.48517 | -97.40851 | 9011 ft | 185 kts | 1° |
| 2026-04-21 07:19 | 31.49803 | -97.40776 | 9011 ft | 185 kts | 1° |
| 2026-04-21 07:19 | 31.51090 | -97.40702 | 9008 ft | 185 kts | 1° |
| 2026-04-21 07:20 | 31.52395 | -97.40633 | 9010 ft | 185 kts | 2° |
| 2026-04-21 07:20 | 31.53682 | -97.40548 | 9009 ft | 185 kts | 2° |
| 2026-04-21 07:20 | 31.54971 | -97.40472 | 9007 ft | 185 kts | 1° |
| 2026-04-21 07:20 | 31.56257 | -97.40400 | 9004 ft | 185 kts | 1° |
| 2026-04-21 07:21 | 31.57541 | -97.40326 | 9005 ft | 185 kts | 2° |
| 2026-04-21 07:21 | 31.58821 | -97.40251 | 9009 ft | 184 kts | 1° |
| 2026-04-21 07:21 | 31.60103 | -97.40175 | 9007 ft | 184 kts | 1° |
| 2026-04-21 07:21 | 31.61383 | -97.40100 | 8999 ft | 184 kts | 1° |
| 2026-04-21 07:22 | 31.62665 | -97.40025 | 9000 ft | 184 kts | 1° |
| 2026-04-21 07:22 | 31.63945 | -97.39950 | 8999 ft | 184 kts | 1° |
| 2026-04-21 07:22 | 31.65224 | -97.39875 | 9004 ft | 184 kts | 1° |
| 2026-04-21 07:22 | 31.66504 | -97.39800 | 9004 ft | 184 kts | 1° |
| 2026-04-21 07:23 | 31.67785 | -97.39725 | 9001 ft | 184 kts | 1° |
| 2026-04-21 07:23 | 31.69067 | -97.39650 | 9000 ft | 184 kts | 1° |
| 2026-04-21 07:23 | 31.70347 | -97.39574 | 9000 ft | 184 kts | 1° |
| 2026-04-21 07:23 | 31.71628 | -97.39499 | 9000 ft | 184 kts | 1° |
| 2026-04-21 07:24 | 31.72907 | -97.39424 | 9000 ft | 184 kts | 1° |
| 2026-04-21 07:24 | 31.74190 | -97.39348 | 9000 ft | 184 kts | 1° |
| 2026-04-21 07:24 | 31.75471 | -97.39273 | 8996 ft | 184 kts | 1° |
| 2026-04-21 07:24 | 31.76752 | -97.39198 | 8997 ft | 185 kts | 1° |
| 2026-04-21 07:25 | 31.78036 | -97.39121 | 8998 ft | 185 kts | 1° |
| 2026-04-21 07:25 | 31.79318 | -97.39046 | 8998 ft | 184 kts | 1° |
| 2026-04-21 07:25 | 31.80600 | -97.38970 | 8998 ft | 184 kts | 1° |
| 2026-04-21 07:25 | 31.81882 | -97.38895 | 8998 ft | 184 kts | 1° |
| 2026-04-21 07:26 | 31.83161 | -97.38820 | 8998 ft | 184 kts | 1° |
| 2026-04-21 07:26 | 31.84442 | -97.38743 | 8996 ft | 185 kts | 1° |
| 2026-04-21 07:26 | 31.85724 | -97.38669 | 8995 ft | 185 kts | 1° |
| 2026-04-21 07:26 | 31.87005 | -97.38593 | 8996 ft | 184 kts | 1° |
| 2026-04-21 07:27 | 31.88286 | -97.38517 | 8995 ft | 184 kts | 1° |
| 2026-04-21 07:27 | 31.89563 | -97.38442 | 8994 ft | 184 kts | 1° |
| 2026-04-21 07:27 | 31.90839 | -97.38368 | 8992 ft | 184 kts | 1° |
| 2026-04-21 07:27 | 31.92134 | -97.38291 | 8992 ft | 184 kts | 1° |
| 2026-04-21 07:28 | 31.93411 | -97.38216 | 8993 ft | 184 kts | 1° |
| 2026-04-21 07:28 | 31.94688 | -97.38140 | 8992 ft | 184 kts | 1° |
| 2026-04-21 07:28 | 31.95964 | -97.38065 | 8991 ft | 184 kts | 1° |
| 2026-04-21 07:28 | 31.97223 | -97.37991 | 8987 ft | 184 kts | 1° |
| 2026-04-21 07:29 | 31.98515 | -97.37914 | 8989 ft | 183 kts | 1° |
| 2026-04-21 07:29 | 31.99791 | -97.37838 | 8989 ft | 184 kts | 1° |
| 2026-04-21 07:29 | 32.01055 | -97.37765 | 8991 ft | 184 kts | 1° |
| 2026-04-21 07:29 | 32.02331 | -97.37689 | 8990 ft | 184 kts | 1° |
| 2026-04-21 07:30 | 32.03608 | -97.37613 | 8987 ft | 184 kts | 1° |
| 2026-04-21 07:30 | 32.04884 | -97.37538 | 8989 ft | 183 kts | 1° |
| 2026-04-21 07:30 | 32.06159 | -97.37462 | 8988 ft | 184 kts | 1° |
| 2026-04-21 07:30 | 32.07435 | -97.37387 | 8988 ft | 184 kts | 1° |
| 2026-04-21 07:31 | 32.08712 | -97.37311 | 8988 ft | 184 kts | 1° |
| 2026-04-21 07:31 | 32.09991 | -97.37235 | 8987 ft | 184 kts | 1° |
| 2026-04-21 07:31 | 32.11268 | -97.37160 | 8986 ft | 184 kts | 1° |
| 2026-04-21 07:31 | 32.12547 | -97.37084 | 8986 ft | 184 kts | 1° |
| 2026-04-21 07:32 | 32.13824 | -97.37007 | 8989 ft | 183 kts | 1° |
| 2026-04-21 07:32 | 32.15112 | -97.36931 | 8990 ft | 182 kts | 1° |
| 2026-04-21 07:32 | 32.16361 | -97.36856 | 8990 ft | 182 kts | 1° |
| 2026-04-21 07:32 | 32.17641 | -97.36780 | 8990 ft | 182 kts | 1° |
| 2026-04-21 07:33 | 32.18889 | -97.36705 | 8988 ft | 182 kts | 1° |
| 2026-04-21 07:33 | 32.20168 | -97.36630 | 8987 ft | 182 kts | 1° |
| 2026-04-21 07:33 | 32.21429 | -97.36556 | 8985 ft | 181 kts | 1° |
| 2026-04-21 07:33 | 32.22689 | -97.36482 | 8984 ft | 181 kts | 1° |
| 2026-04-21 07:34 | 32.23944 | -97.36406 | 8985 ft | 181 kts | 1° |
| 2026-04-21 07:34 | 32.25200 | -97.36332 | 8986 ft | 181 kts | 1° |
| 2026-04-21 07:34 | 32.26458 | -97.36258 | 8983 ft | 181 kts | 1° |
| 2026-04-21 07:34 | 32.27713 | -97.36183 | 8985 ft | 181 kts | 1° |
| 2026-04-21 07:35 | 32.28970 | -97.36108 | 8985 ft | 181 kts | 1° |
| 2026-04-21 07:35 | 32.30227 | -97.36034 | 8983 ft | 181 kts | 1° |
| 2026-04-21 07:35 | 32.31486 | -97.35958 | 8984 ft | 181 kts | 1° |
| 2026-04-21 07:35 | 32.32746 | -97.35882 | 8983 ft | 181 kts | 1° |
| 2026-04-21 07:36 | 32.34007 | -97.35807 | 8983 ft | 181 kts | 1° |
| 2026-04-21 07:36 | 32.35269 | -97.35733 | 8970 ft | 182 kts | 1° |
| 2026-04-21 07:36 | 32.36530 | -97.35658 | 8969 ft | 181 kts | 1° |
| 2026-04-21 07:36 | 32.37793 | -97.35583 | 8967 ft | 182 kts | 1° |
| 2026-04-21 07:37 | 32.39052 | -97.35509 | 8969 ft | 181 kts | 1° |
| 2026-04-21 07:37 | 32.40316 | -97.35433 | 8971 ft | 181 kts | 1° |
| 2026-04-21 07:37 | 32.41571 | -97.35358 | 8970 ft | 181 kts | 1° |
| 2026-04-21 07:37 | 32.42826 | -97.35284 | 8969 ft | 180 kts | 1° |
| 2026-04-21 07:38 | 32.44075 | -97.35208 | 8972 ft | 180 kts | 1° |
| 2026-04-21 07:38 | 32.45326 | -97.35134 | 9014 ft | 180 kts | 1° |
| 2026-04-21 07:38 | 32.46577 | -97.35058 | 9015 ft | 180 kts | 1° |
| 2026-04-21 07:38 | 32.47826 | -97.34984 | 9016 ft | 180 kts | 1° |
| 2026-04-21 07:39 | 32.49074 | -97.34909 | 9014 ft | 180 kts | 1° |
| 2026-04-21 07:39 | 32.50326 | -97.34835 | 9017 ft | 180 kts | 1° |
| 2026-04-21 07:39 | 32.51575 | -97.34759 | 9017 ft | 180 kts | 0° |
| 2026-04-21 07:39 | 32.52838 | -97.34683 | 8937 ft | 184 kts | 1° |
| 2026-04-21 07:40 | 32.54131 | -97.34604 | 8816 ft | 187 kts | 1° |
| 2026-04-21 07:40 | 32.55439 | -97.34527 | 8694 ft | 189 kts | 1° |
| 2026-04-21 07:40 | 32.56760 | -97.34447 | 8571 ft | 191 kts | 1° |
| 2026-04-21 07:40 | 32.58085 | -97.34367 | 8448 ft | 191 kts | 1° |
| 2026-04-21 07:41 | 32.59414 | -97.34288 | 8324 ft | 191 kts | 1° |
| 2026-04-21 07:41 | 32.60746 | -97.34211 | 8199 ft | 192 kts | 1° |
| 2026-04-21 07:41 | 32.62077 | -97.34131 | 8075 ft | 192 kts | 1° |
| 2026-04-21 07:41 | 32.63410 | -97.34051 | 7952 ft | 192 kts | 1° |
| 2026-04-21 07:42 | 32.64760 | -97.33970 | 7828 ft | 192 kts | 1° |
| 2026-04-21 07:42 | 32.66077 | -97.33890 | 7706 ft | 192 kts | 1° |
| 2026-04-21 07:42 | 32.67412 | -97.33810 | 7581 ft | 192 kts | 1° |
| 2026-04-21 07:42 | 32.68764 | -97.33730 | 7455 ft | 192 kts | 1° |
| 2026-04-21 07:43 | 32.70098 | -97.33648 | 7337 ft | 192 kts | 1° |
| 2026-04-21 07:43 | 32.71432 | -97.33568 | 7218 ft | 192 kts | 1° |
| 2026-04-21 07:43 | 32.72754 | -97.33489 | 7101 ft | 192 kts | 1° |
| 2026-04-21 07:43 | 32.74109 | -97.33408 | 6981 ft | 193 kts | 1° |
| 2026-04-21 07:44 | 32.75447 | -97.33320 | 6858 ft | 193 kts | 3° |
| 2026-04-21 07:44 | 32.76762 | -97.33034 | 6736 ft | 193 kts | 7° |
| 2026-04-21 07:44 | 32.78094 | -97.33080 | 6610 ft | 191 kts | 350° |
| 2026-04-21 07:44 | 32.79409 | -97.33300 | 6486 ft | 192 kts | 351° |
| 2026-04-21 07:45 | 32.80736 | -97.33486 | 6365 ft | 192 kts | 352° |
| 2026-04-21 07:45 | 32.82061 | -97.33656 | 6238 ft | 192 kts | 352° |
| 2026-04-21 07:45 | 32.83386 | -97.33818 | 6112 ft | 191 kts | 352° |
| 2026-04-21 07:45 | 32.84699 | -97.34038 | 6005 ft | 189 kts | 347° |
| 2026-04-21 07:46 | 32.85973 | -97.34319 | 6001 ft | 184 kts | 347° |
| 2026-04-21 07:46 | 32.87228 | -97.34594 | 5929 ft | 186 kts | 348° |
| 2026-04-21 07:46 | 32.88072 | -97.34782 | 5763 ft | 185 kts | 347° |
| 2026-04-21 07:46 | 32.89752 | -97.35164 | 5429 ft | 182 kts | 347° |
| 2026-04-21 07:47 | 32.90574 | -97.35356 | 5267 ft | 181 kts | 347° |
| 2026-04-21 07:47 | 32.91811 | -97.35648 | 5019 ft | 181 kts | 347° |
| 2026-04-21 07:47 | 32.93047 | -97.35945 | 4736 ft | 182 kts | 347° |
| 2026-04-21 07:47 | 32.94306 | -97.36244 | 4460 ft | 182 kts | 347° |
| 2026-04-21 07:48 | 32.95552 | -97.36537 | 4186 ft | 183 kts | 347° |
| 2026-04-21 07:48 | 32.96806 | -97.36832 | 3915 ft | 184 kts | 347° |
| 2026-04-21 07:48 | 32.98066 | -97.37131 | 3641 ft | 185 kts | 347° |
| 2026-04-21 07:48 | 32.99334 | -97.37431 | 3368 ft | 186 kts | 347° |
| 2026-04-21 07:49 | 33.00602 | -97.37733 | 3090 ft | 186 kts | 347° |
| 2026-04-21 07:49 | 33.01869 | -97.38042 | 2813 ft | 186 kts | 347° |
| 2026-04-21 07:49 | 33.03137 | -97.38345 | 2535 ft | 185 kts | 348° |
| 2026-04-21 07:49 | 33.04377 | -97.38195 | 2399 ft | 176 kts | 30° |
| 2026-04-21 07:50 | 33.05118 | -97.37168 | 2344 ft | 161 kts | 77° |
| 2026-04-21 07:50 | 33.05343 | -97.35904 | 2227 ft | 147 kts | 88° |
| 2026-04-21 07:50 | 33.05358 | -97.34972 | 2276 ft | 91 kts | 110° |
| 2026-04-21 07:50 | 33.05170 | -97.34324 | 2166 ft | 78 kts | 132° |
| 2026-04-21 07:51 | 33.04821 | -97.33859 | 2037 ft | 73 kts | 148° |
| 2026-04-21 07:51 | 33.04425 | -97.33473 | 1817 ft | 77 kts | 149° |
| 2026-04-21 07:51 | 33.04013 | -97.33150 | 1624 ft | 65 kts | 158° |
| 2026-04-21 07:51 | 33.03602 | -97.32894 | 1537 ft | 69 kts | 159° |
| 2026-04-21 07:52 | 33.03136 | -97.32693 | 1377 ft | 70 kts | 166° |
| 2026-04-21 07:52 | 33.02670 | -97.32582 | 1208 ft | 70 kts | 172° |
| 2026-04-21 07:52 | 33.02179 | -97.32478 | 1073 ft | 70 kts | 171° |
| 2026-04-21 07:52 | 33.01698 | -97.32388 | 966 ft | 70 kts | 170° |
| 2026-04-21 07:53 | 33.01236 | -97.32298 | 858 ft | 63 kts | 173° |
| 2026-04-21 07:53 | 33.00809 | -97.32211 | 779 ft | 66 kts | 171° |
| 2026-04-21 07:53 | 33.00356 | -97.32119 | 716 ft | 66 kts | 171° |
| 2026-04-21 07:53 | 32.99965 | -97.32037 | 689 ft | 43 kts | 169° |
| 2026-04-21 07:54 | 32.99740 | -97.31989 | 689 ft | 26 kts | 170° |
| 2026-04-21 07:54 | 32.99533 | -97.31946 | 683 ft | 39 kts | 170° |
| 2026-04-21 07:54 | 32.99279 | -97.31892 | 689 ft | 32 kts | 169° |
| 2026-04-21 07:54 | 32.99250 | -97.31746 | 687 ft | 20 kts | 82° |
| 2026-04-21 07:55 | 32.99272 | -97.31650 | 689 ft | 11 kts | 93° |
| 2026-04-21 07:55 | 32.99288 | -97.31554 | 689 ft | 10 kts | 32° |
| 2026-04-21 07:55 | 32.99365 | -97.31550 | 689 ft | 11 kts | 355° |
| 2026-04-21 07:55 | 32.99393 | -97.31527 | 689 ft | 1 kts | 88° |
| 2026-04-21 07:56 | 32.99395 | -97.31510 | 688 ft | 4 kts | 82° |
| 2026-04-21 07:56 | 32.99396 | -97.31505 | 689 ft | 0 kts | 81° |